createdAt,value
2016-12-06T00:00:52.742Z,0
2016-12-06T00:01:52.719Z,0
2016-12-06T00:02:52.384Z,0
2016-12-06T00:03:52.692Z,0
2016-12-06T00:04:52.557Z,0
2016-12-06T00:05:52.699Z,0
2016-12-06T00:06:52.324Z,0
2016-12-06T00:07:52.307Z,0
2016-12-06T00:08:52.602Z,0
2016-12-06T00:09:52.609Z,0
2016-12-06T00:10:51.939Z,0
2016-12-06T00:11:52.546Z,0
2016-12-06T00:12:52.528Z,0
2016-12-06T00:13:52.517Z,0
2016-12-06T00:14:51.868Z,0
2016-12-06T00:15:52.179Z,0
2016-12-06T00:16:52.045Z,0
2016-12-06T00:17:52.149Z,0
2016-12-06T00:18:52.439Z,0
2016-12-06T00:19:52.422Z,0
2016-12-06T00:20:52.431Z,0
2016-12-06T00:21:52.388Z,0
2016-12-06T00:22:52.062Z,0
2016-12-06T00:23:52.361Z,0
2016-12-06T00:24:52.334Z,0
2016-12-06T00:25:52.010Z,0
2016-12-06T00:26:52.303Z,0
2016-12-06T00:27:52.288Z,0
2016-12-06T00:28:52.271Z,0
2016-12-06T00:29:51.938Z,0
2016-12-06T00:30:51.925Z,0
2016-12-06T00:31:51.901Z,0
2016-12-06T00:32:52.210Z,0
2016-12-06T00:33:51.575Z,0
2016-12-06T00:34:51.853Z,0
2016-12-06T00:35:51.521Z,0
2016-12-06T00:36:52.145Z,0
2016-12-06T00:37:51.850Z,0
2016-12-06T00:38:51.786Z,0
2016-12-06T00:39:52.097Z,0
2016-12-06T00:40:51.750Z,0
2016-12-06T00:41:52.055Z,0
2016-12-06T00:42:52.036Z,0
2016-12-06T00:43:52.073Z,0
2016-12-06T00:44:52.003Z,0
2016-12-06T00:45:51.986Z,0
2016-12-06T00:46:51.656Z,0
2016-12-06T00:47:51.960Z,0
2016-12-06T00:48:51.311Z,0
2016-12-06T00:49:51.610Z,0
2016-12-06T00:50:51.594Z,0
2016-12-06T00:51:51.263Z,0
2016-12-06T00:52:51.551Z,0
2016-12-06T00:53:51.852Z,0
2016-12-06T00:54:51.845Z,0
2016-12-06T00:55:51.504Z,0
2016-12-06T00:56:52.059Z,0
2016-12-06T00:57:51.464Z,0
2016-12-06T00:58:51.765Z,0
2016-12-06T00:59:51.347Z,0
2016-12-06T01:00:51.423Z,0
2016-12-06T01:01:51.403Z,0
2016-12-06T01:02:51.693Z,0
2016-12-06T01:03:51.056Z,0
2016-12-06T01:04:51.345Z,0
2016-12-06T01:05:51.328Z,0
2016-12-06T01:06:51.317Z,0
2016-12-06T01:07:51.296Z,0
2016-12-06T01:08:51.280Z,0
2016-12-06T01:09:51.582Z,0
2016-12-06T01:10:51.259Z,0
2016-12-06T01:11:51.288Z,0
2016-12-06T01:12:51.269Z,0
2016-12-06T01:13:51.204Z,0
2016-12-06T01:14:51.515Z,0
2016-12-06T01:15:51.482Z,0
2016-12-06T01:16:51.147Z,0
2016-12-06T01:17:51.447Z,0
2016-12-06T01:18:51.114Z,0
2016-12-06T01:19:51.413Z,0
2016-12-06T01:20:51.398Z,0
2016-12-06T01:21:51.374Z,0
2016-12-06T01:22:51.361Z,0
2016-12-06T01:23:51.338Z,0
2016-12-06T01:24:51.371Z,0
2016-12-06T01:25:51.312Z,0
2016-12-06T01:26:51.288Z,0
2016-12-06T01:27:50.851Z,0
2016-12-06T01:28:51.465Z,0
2016-12-06T01:29:51.252Z,0
2016-12-06T01:30:51.225Z,0
2016-12-06T01:31:50.892Z,0
2016-12-06T01:32:51.194Z,0
2016-12-06T01:33:51.186Z,0
2016-12-06T01:34:51.165Z,0
2016-12-06T01:35:51.139Z,0
2016-12-06T01:36:50.804Z,0
2016-12-06T01:37:51.102Z,0
2016-12-06T01:38:50.772Z,0
2016-12-06T01:39:50.766Z,0
2016-12-06T01:40:51.059Z,0
2016-12-06T01:41:51.040Z,0
2016-12-06T01:42:50.389Z,0
2016-12-06T01:43:51.013Z,0
2016-12-06T01:44:50.352Z,0
2016-12-06T01:45:50.969Z,0
2016-12-06T01:46:50.677Z,0
2016-12-06T01:47:50.624Z,0
2016-12-06T01:48:50.916Z,0
2016-12-06T01:49:51.530Z,0
2016-12-06T01:50:50.891Z,0
2016-12-06T01:51:50.868Z,0
2016-12-06T01:52:50.541Z,0
2016-12-06T01:53:50.835Z,0
2016-12-06T01:54:50.504Z,0
2016-12-06T01:55:50.804Z,0
2016-12-06T01:56:50.777Z,0
2016-12-06T01:57:50.448Z,0
2016-12-06T01:58:50.747Z,0
2016-12-06T01:59:50.730Z,0
2016-12-06T02:00:50.421Z,0
2016-12-06T02:01:50.389Z,0
2016-12-06T02:02:50.366Z,0
2016-12-06T02:03:50.347Z,0
2016-12-06T02:04:50.754Z,0
2016-12-06T02:05:50.629Z,0
2016-12-06T02:06:50.535Z,0
2016-12-06T02:07:50.282Z,0
2016-12-06T02:08:50.489Z,0
2016-12-06T02:09:50.582Z,0
2016-12-06T02:10:50.230Z,0
2016-12-06T02:11:49.905Z,0
2016-12-06T02:12:50.514Z,0
2016-12-06T02:13:50.221Z,0
2016-12-06T02:14:50.160Z,0
2016-12-06T02:15:50.467Z,0
2016-12-06T02:16:49.806Z,0
2016-12-06T02:17:50.427Z,0
2016-12-06T02:18:50.409Z,0
2016-12-06T02:19:50.081Z,0
2016-12-06T02:20:50.063Z,0
2016-12-06T02:21:50.570Z,0
2016-12-06T02:22:50.338Z,0
2016-12-06T02:23:50.045Z,0
2016-12-06T02:24:50.312Z,0
2016-12-06T02:25:50.291Z,0
2016-12-06T02:26:50.272Z,0
2016-12-06T02:27:49.935Z,0
2016-12-06T02:28:50.237Z,0
2016-12-06T02:29:50.138Z,0
2016-12-06T02:30:49.884Z,0
2016-12-06T02:31:50.192Z,0
2016-12-06T02:32:50.171Z,0
2016-12-06T02:33:49.835Z,0
2016-12-06T02:34:50.142Z,0
2016-12-06T02:35:49.804Z,0
2016-12-06T02:36:50.098Z,0
2016-12-06T02:37:49.820Z,0
2016-12-06T02:38:50.068Z,0
2016-12-06T02:39:49.748Z,0
2016-12-06T02:40:49.105Z,0
2016-12-06T02:41:50.019Z,0
2016-12-06T02:42:49.996Z,0
2016-12-06T02:43:49.979Z,0
2016-12-06T02:44:49.966Z,0
2016-12-06T02:45:49.995Z,0
2016-12-06T02:46:49.646Z,0
2016-12-06T02:47:49.906Z,0
2016-12-06T02:48:49.631Z,0
2016-12-06T02:49:49.878Z,0
2016-12-06T02:50:49.858Z,0
2016-12-06T02:51:49.843Z,0
2016-12-06T02:52:49.506Z,0
2016-12-06T02:53:49.807Z,0
2016-12-06T02:54:49.472Z,0
2016-12-06T02:55:49.457Z,0
2016-12-06T02:56:49.748Z,0
2016-12-06T02:57:49.430Z,0
2016-12-06T02:58:49.405Z,0
2016-12-06T02:59:49.400Z,0
2016-12-06T03:00:49.685Z,0
2016-12-06T03:01:49.348Z,0
2016-12-06T03:02:49.383Z,0
2016-12-06T03:03:49.641Z,0
2016-12-06T03:04:49.616Z,0
2016-12-06T03:05:49.311Z,0
2016-12-06T03:06:49.582Z,0
2016-12-06T03:07:49.568Z,0
2016-12-06T03:08:49.233Z,0
2016-12-06T03:09:49.530Z,0
2016-12-06T03:10:49.514Z,0
2016-12-06T03:11:49.206Z,0
2016-12-06T03:12:49.485Z,0
2016-12-06T03:13:49.151Z,0
2016-12-06T03:14:49.128Z,0
2016-12-06T03:15:48.807Z,0
2016-12-06T03:16:49.125Z,0
2016-12-06T03:17:49.392Z,0
2016-12-06T03:18:49.370Z,0
2016-12-06T03:19:49.354Z,0
2016-12-06T03:20:49.035Z,0
2016-12-06T03:21:49.353Z,0
2016-12-06T03:22:49.310Z,0
2016-12-06T03:23:49.283Z,0
2016-12-06T03:24:49.270Z,0
2016-12-06T03:25:49.253Z,0
2016-12-06T03:26:49.254Z,0
2016-12-06T03:27:49.438Z,0
2016-12-06T03:28:48.886Z,0
2016-12-06T03:29:49.070Z,0
2016-12-06T03:30:49.171Z,0
2016-12-06T03:31:48.831Z,0
2016-12-06T03:32:49.130Z,0
2016-12-06T03:33:49.115Z,0
2016-12-06T03:34:49.101Z,0
2016-12-06T03:35:48.773Z,0
2016-12-06T03:36:49.104Z,0
2016-12-06T03:37:48.731Z,0
2016-12-06T03:38:48.713Z,0
2016-12-06T03:39:49.018Z,0
2016-12-06T03:40:48.671Z,0
2016-12-06T03:41:48.660Z,0
2016-12-06T03:42:48.862Z,0
2016-12-06T03:43:48.317Z,0
2016-12-06T03:44:48.924Z,0
2016-12-06T03:45:48.901Z,0
2016-12-06T03:46:48.895Z,0
2016-12-06T03:47:48.900Z,0
2016-12-06T03:48:48.867Z,0
2016-12-06T03:49:48.840Z,0
2016-12-06T03:50:48.507Z,0
2016-12-06T03:51:48.177Z,0
2016-12-06T03:52:48.466Z,0
2016-12-06T03:53:48.777Z,0
2016-12-06T03:54:48.430Z,0
2016-12-06T03:55:48.736Z,0
2016-12-06T03:56:48.721Z,0
2016-12-06T03:57:48.698Z,0
2016-12-06T03:58:48.683Z,0
2016-12-06T03:59:48.345Z,0
2016-12-06T04:00:48.324Z,0
2016-12-06T04:01:48.311Z,0
2016-12-06T04:02:48.617Z,0
2016-12-06T04:03:48.826Z,0
2016-12-06T04:04:48.569Z,0
2016-12-06T04:05:48.562Z,0
2016-12-06T04:06:48.227Z,0
2016-12-06T04:07:48.205Z,0
2016-12-06T04:08:48.188Z,0
2016-12-06T04:09:48.534Z,0
2016-12-06T04:10:48.472Z,0
2016-12-06T04:11:48.145Z,0
2016-12-06T04:12:48.444Z,0
2016-12-06T04:13:48.417Z,0
2016-12-06T04:14:48.089Z,0
2016-12-06T04:15:48.062Z,0
2016-12-06T04:16:48.046Z,0
2016-12-06T04:17:48.036Z,0
2016-12-06T04:18:48.328Z,0
2016-12-06T04:19:48.203Z,0
2016-12-06T04:20:47.975Z,0
2016-12-06T04:21:48.283Z,0
2016-12-06T04:22:47.848Z,0
2016-12-06T04:23:47.929Z,0
2016-12-06T04:24:48.269Z,0
2016-12-06T04:25:47.890Z,0
2016-12-06T04:26:48.417Z,0
2016-12-06T04:27:48.181Z,0
2016-12-06T04:28:47.844Z,0
2016-12-06T04:29:48.145Z,0
2016-12-06T04:30:47.804Z,0
2016-12-06T04:31:48.139Z,0
2016-12-06T04:32:47.773Z,0
2016-12-06T04:33:48.074Z,0
2016-12-06T04:34:48.053Z,0
2016-12-06T04:35:47.935Z,0
2016-12-06T04:37:02.579Z,0
2016-12-06T04:37:47.419Z,0
2016-12-06T04:38:47.982Z,0
2016-12-06T04:39:47.967Z,0
2016-12-06T04:40:47.627Z,0
2016-12-06T04:41:47.942Z,0
2016-12-06T04:42:47.915Z,0
2016-12-06T04:43:47.580Z,0
2016-12-06T04:44:47.877Z,0
2016-12-06T04:45:47.860Z,0
2016-12-06T04:46:47.524Z,0
2016-12-06T04:47:47.821Z,0
2016-12-06T04:48:47.816Z,0
2016-12-06T04:49:47.845Z,0
2016-12-06T04:50:47.141Z,0
2016-12-06T04:51:47.755Z,0
2016-12-06T04:52:47.731Z,0
2016-12-06T04:53:47.434Z,0
2016-12-06T04:54:47.635Z,0
2016-12-06T04:55:47.685Z,0
2016-12-06T04:56:47.694Z,0
2016-12-06T04:57:47.653Z,0
2016-12-06T04:58:47.639Z,0
2016-12-06T04:59:47.611Z,0
2016-12-06T05:00:47.535Z,0
2016-12-06T05:01:47.266Z,0
2016-12-06T05:02:47.575Z,0
2016-12-06T05:03:47.549Z,0
2016-12-06T05:04:47.533Z,0
2016-12-06T05:05:47.203Z,0
2016-12-06T05:06:47.493Z,0
2016-12-06T05:07:47.158Z,0
2016-12-06T05:08:47.179Z,0
2016-12-06T05:09:47.442Z,0
2016-12-06T05:10:47.635Z,0
2016-12-06T05:11:47.408Z,0
2016-12-06T05:12:47.396Z,0
2016-12-06T05:13:47.366Z,0
2016-12-06T05:14:47.362Z,0
2016-12-06T05:15:47.344Z,0
2016-12-06T05:16:46.685Z,0
2016-12-06T05:17:47.301Z,0
2016-12-06T05:18:46.972Z,0
2016-12-06T05:19:47.270Z,0
2016-12-06T05:20:47.253Z,0
2016-12-06T05:21:46.924Z,0
2016-12-06T05:22:46.903Z,0
2016-12-06T05:23:46.889Z,0
2016-12-06T05:24:47.182Z,0
2016-12-06T05:25:46.859Z,0
2016-12-06T05:26:46.516Z,0
2016-12-06T05:27:47.127Z,0
2016-12-06T05:28:47.117Z,0
2016-12-06T05:29:46.780Z,0
2016-12-06T05:30:46.449Z,0
2016-12-06T05:31:46.746Z,0
2016-12-06T05:32:46.426Z,0
2016-12-06T05:33:46.715Z,0
2016-12-06T05:34:47.347Z,0
2016-12-06T05:35:46.723Z,0
2016-12-06T05:36:47.037Z,0
2016-12-06T05:37:46.324Z,0
2016-12-06T05:38:46.943Z,0
2016-12-06T05:39:46.603Z,0
2016-12-06T05:40:46.590Z,0
2016-12-06T05:41:46.895Z,0
2016-12-06T05:42:46.758Z,0
2016-12-06T05:43:46.859Z,0
2016-12-06T05:44:46.515Z,0
2016-12-06T05:45:46.817Z,0
2016-12-06T05:46:47.037Z,0
2016-12-06T05:47:46.793Z,0
2016-12-06T05:48:46.797Z,0
2016-12-06T05:49:46.120Z,0
2016-12-06T05:50:46.427Z,0
2016-12-06T05:51:46.717Z,0
2016-12-06T05:52:46.935Z,0
2016-12-06T05:53:46.057Z,0
2016-12-06T05:54:46.357Z,0
2016-12-06T05:55:46.650Z,0
2016-12-06T05:56:46.321Z,0
2016-12-06T05:57:46.340Z,0
2016-12-06T05:58:46.598Z,0
2016-12-06T05:59:46.596Z,0
2016-12-06T06:00:46.565Z,0
2016-12-06T06:01:46.783Z,0
2016-12-06T06:02:46.530Z,0
2016-12-06T06:03:46.197Z,0
2016-12-06T06:04:46.500Z,0
2016-12-06T06:05:46.476Z,0
2016-12-06T06:06:46.463Z,0
2016-12-06T06:07:46.137Z,0
2016-12-06T06:08:46.469Z,0
2016-12-06T06:09:46.413Z,0
2016-12-06T06:10:46.082Z,0
2016-12-06T06:11:46.379Z,0
2016-12-06T06:12:46.366Z,0
2016-12-06T06:13:45.720Z,0
2016-12-06T06:14:46.327Z,0
2016-12-06T06:15:46.315Z,0
2016-12-06T06:16:45.983Z,0
2016-12-06T06:17:46.530Z,0
2016-12-06T06:18:45.948Z,0
2016-12-06T06:19:45.931Z,0
2016-12-06T06:20:46.236Z,0
2016-12-06T06:21:46.213Z,0
2016-12-06T06:22:46.253Z,0
2016-12-06T06:23:45.865Z,0
2016-12-06T06:24:46.169Z,0
2016-12-06T06:25:46.141Z,0
2016-12-06T06:26:46.132Z,0
2016-12-06T06:27:46.354Z,0
2016-12-06T06:28:46.092Z,0
2016-12-06T06:29:45.770Z,0
2016-12-06T06:30:45.777Z,0
2016-12-06T06:31:46.048Z,0
2016-12-06T06:32:45.709Z,0
2016-12-06T06:33:46.008Z,0
2016-12-06T06:34:45.996Z,0
2016-12-06T06:35:45.979Z,0
2016-12-06T06:36:45.964Z,0
2016-12-06T06:37:45.631Z,0
2016-12-06T06:38:45.618Z,0
2016-12-06T06:39:45.595Z,0
2016-12-06T06:40:45.895Z,0
2016-12-06T06:41:45.878Z,0
2016-12-06T06:42:45.862Z,0
2016-12-06T06:43:45.840Z,0
2016-12-06T06:44:44.880Z,0
2016-12-06T06:45:45.819Z,0
2016-12-06T06:46:45.792Z,0
2016-12-06T06:47:45.784Z,0
2016-12-06T06:48:45.768Z,0
2016-12-06T06:49:45.114Z,0
2016-12-06T06:50:45.729Z,0
2016-12-06T06:51:45.716Z,0
2016-12-06T06:52:45.691Z,0
2016-12-06T06:53:45.680Z,0
2016-12-06T06:54:45.032Z,0
2016-12-06T06:55:45.542Z,0
2016-12-06T06:56:45.633Z,0
2016-12-06T06:57:45.614Z,0
2016-12-06T06:58:45.296Z,0
2016-12-06T06:59:45.263Z,0
2016-12-06T07:00:45.556Z,0
2016-12-06T07:01:45.217Z,0
2016-12-06T07:02:45.527Z,0
2016-12-06T07:03:45.511Z,0
2016-12-06T07:04:45.497Z,0
2016-12-06T07:05:45.164Z,0
2016-12-06T07:06:45.511Z,0
2016-12-06T07:07:45.452Z,0
2016-12-06T07:08:45.427Z,0
2016-12-06T07:09:45.407Z,0
2016-12-06T07:10:45.402Z,0
2016-12-06T07:11:44.742Z,0
2016-12-06T07:12:45.363Z,0
2016-12-06T07:13:45.348Z,0
2016-12-06T07:14:45.337Z,0
2016-12-06T07:15:44.989Z,0
2016-12-06T07:16:45.345Z,0
2016-12-06T07:17:45.272Z,0
2016-12-06T07:18:45.178Z,0
2016-12-06T07:19:44.934Z,0
2016-12-06T07:20:45.228Z,0
2016-12-06T07:21:45.236Z,0
2016-12-06T07:22:45.191Z,0
2016-12-06T07:23:45.184Z,0
2016-12-06T07:24:45.410Z,0
2016-12-06T07:25:45.178Z,0
2016-12-06T07:26:45.132Z,0
2016-12-06T07:27:45.115Z,0
2016-12-06T07:28:45.098Z,0
2016-12-06T07:29:45.077Z,0
2016-12-06T07:30:45.117Z,0
2016-12-06T07:31:44.732Z,0
2016-12-06T07:32:45.028Z,0
2016-12-06T07:33:44.694Z,0
2016-12-06T07:34:44.685Z,0
2016-12-06T07:35:44.983Z,0
2016-12-06T07:36:44.968Z,0
2016-12-06T07:37:44.639Z,0
2016-12-06T07:38:44.619Z,0
2016-12-06T07:39:44.921Z,0
2016-12-06T07:40:44.897Z,0
2016-12-06T07:41:44.562Z,0
2016-12-06T07:42:44.867Z,0
2016-12-06T07:43:44.533Z,0
2016-12-06T07:44:44.879Z,0
2016-12-06T07:45:44.827Z,0
2016-12-06T07:46:44.804Z,0
2016-12-06T07:47:44.781Z,0
2016-12-06T07:48:44.707Z,0
2016-12-06T07:49:44.752Z,0
2016-12-06T07:50:44.419Z,0
2016-12-06T07:51:44.404Z,0
2016-12-06T07:52:44.703Z,0
2016-12-06T07:53:44.686Z,0
2016-12-06T07:54:44.399Z,0
2016-12-06T07:55:44.653Z,0
2016-12-06T07:56:44.860Z,0
2016-12-06T07:57:44.662Z,0
2016-12-06T07:58:44.602Z,0
2016-12-06T07:59:44.590Z,0
2016-12-06T08:00:44.562Z,0
2016-12-06T08:01:44.554Z,0
2016-12-06T08:02:44.229Z,0
2016-12-06T08:03:44.527Z,0
2016-12-06T08:04:44.518Z,0
2016-12-06T08:05:44.733Z,0
2016-12-06T08:06:44.712Z,0
2016-12-06T08:07:43.824Z,0
2016-12-06T08:08:43.803Z,0
2016-12-06T08:09:44.108Z,0
2016-12-06T08:10:44.409Z,0
2016-12-06T08:11:44.400Z,0
2016-12-06T08:12:44.376Z,0
2016-12-06T08:13:44.361Z,0
2016-12-06T08:14:44.400Z,0
2016-12-06T08:15:44.009Z,0
2016-12-06T08:16:44.311Z,0
2016-12-06T08:17:44.296Z,0
2016-12-06T08:18:43.971Z,0
2016-12-06T08:19:44.264Z,0
2016-12-06T08:20:43.939Z,0
2016-12-06T08:21:44.230Z,0
2016-12-06T08:22:43.897Z,0
2016-12-06T08:23:44.199Z,0
2016-12-06T08:24:44.188Z,0
2016-12-06T08:25:43.214Z,0
2016-12-06T08:26:44.155Z,0
2016-12-06T08:27:43.816Z,0
2016-12-06T08:28:43.807Z,0
2016-12-06T08:29:44.110Z,0
2016-12-06T08:30:44.093Z,0
2016-12-06T08:31:43.763Z,0
2016-12-06T08:32:43.738Z,0
2016-12-06T08:33:44.043Z,0
2016-12-06T08:34:44.018Z,0
2016-12-06T08:35:44.051Z,0
2016-12-06T08:36:43.985Z,0
2016-12-06T08:37:43.655Z,0
2016-12-06T08:38:43.965Z,0
2016-12-06T08:39:43.938Z,0
2016-12-06T08:40:43.610Z,0
2016-12-06T08:41:43.903Z,0
2016-12-06T08:42:43.895Z,0
2016-12-06T08:43:43.561Z,0
2016-12-06T08:44:43.859Z,0
2016-12-06T08:45:43.840Z,0
2016-12-06T08:46:43.515Z,0
2016-12-06T08:47:43.876Z,0
2016-12-06T08:48:43.797Z,0
2016-12-06T08:49:43.783Z,0
2016-12-06T08:50:43.708Z,0
2016-12-06T08:51:43.747Z,0
2016-12-06T08:52:43.728Z,0
2016-12-06T08:53:43.719Z,0
2016-12-06T08:54:43.695Z,0
2016-12-06T08:55:43.364Z,0
2016-12-06T08:56:43.349Z,0
2016-12-06T08:57:43.650Z,0
2016-12-06T08:58:43.631Z,0
2016-12-06T08:59:43.297Z,0
2016-12-06T09:00:43.510Z,0
2016-12-06T09:01:43.269Z,0
2016-12-06T09:02:43.618Z,0
2016-12-06T09:03:43.547Z,0
2016-12-06T09:04:43.543Z,0
2016-12-06T09:05:43.518Z,0
2016-12-06T09:06:43.507Z,0
2016-12-06T09:07:43.488Z,0
2016-12-06T09:08:43.489Z,0
2016-12-06T09:09:43.491Z,0
2016-12-06T09:10:43.442Z,0
2016-12-06T09:11:43.419Z,0
2016-12-06T09:12:43.116Z,0
2016-12-06T09:13:43.075Z,0
2016-12-06T09:14:43.375Z,0
2016-12-06T09:15:43.354Z,0
2016-12-06T09:16:43.035Z,0
2016-12-06T09:17:43.326Z,0
2016-12-06T09:18:43.308Z,0
2016-12-06T09:19:42.989Z,0
2016-12-06T09:20:43.276Z,0
2016-12-06T09:21:42.945Z,0
2016-12-06T09:22:42.925Z,0
2016-12-06T09:23:43.451Z,0
2016-12-06T09:24:42.895Z,0
2016-12-06T09:25:43.466Z,0
2016-12-06T09:26:42.862Z,0
2016-12-06T09:27:42.878Z,0
2016-12-06T09:28:43.146Z,0
2016-12-06T09:29:43.129Z,0
2016-12-06T09:30:43.122Z,0
2016-12-06T09:31:42.780Z,0
2016-12-06T09:32:43.083Z,0
2016-12-06T09:33:42.756Z,0
2016-12-06T09:34:42.733Z,0
2016-12-06T09:35:43.034Z,0
2016-12-06T09:36:43.020Z,0
2016-12-06T09:37:43.003Z,0
2016-12-06T09:38:43.205Z,0
2016-12-06T09:39:42.974Z,0
2016-12-06T09:40:42.636Z,0
2016-12-06T09:41:42.623Z,0
2016-12-06T09:42:42.917Z,0
2016-12-06T09:43:42.904Z,0
2016-12-06T09:44:42.893Z,0
2016-12-06T09:46:42.874Z,0
2016-12-06T09:47:42.847Z,0
2016-12-06T09:48:42.831Z,0
2016-12-06T09:49:42.804Z,0
2016-12-06T09:50:42.790Z,0
2016-12-06T09:51:42.772Z,0
2016-12-06T09:52:42.441Z,0
2016-12-06T09:53:42.434Z,0
2016-12-06T09:54:42.727Z,0
2016-12-06T09:55:42.739Z,0
2016-12-06T09:56:42.701Z,0
2016-12-06T09:57:42.915Z,0
2016-12-06T09:58:42.343Z,0
2016-12-06T09:59:42.016Z,0
2016-12-06T10:00:42.629Z,0
2016-12-06T10:01:42.307Z,0
2016-12-06T10:02:42.595Z,0
2016-12-06T10:03:42.582Z,0
2016-12-06T10:04:42.574Z,0
2016-12-06T10:05:42.557Z,0
2016-12-06T10:06:42.217Z,0
2016-12-06T10:07:42.513Z,0
2016-12-06T10:08:41.880Z,0
2016-12-06T10:09:42.493Z,0
2016-12-06T10:10:42.467Z,0
2016-12-06T10:11:42.143Z,0
2016-12-06T10:12:42.177Z,0
2016-12-06T10:13:42.424Z,0
2016-12-06T10:14:42.406Z,0
2016-12-06T10:15:41.753Z,0
2016-12-06T10:16:42.364Z,0
2016-12-06T10:17:42.362Z,0
2016-12-06T10:18:42.029Z,0
2016-12-06T10:19:42.339Z,0
2016-12-06T10:20:41.997Z,0
2016-12-06T10:21:41.978Z,0
2016-12-06T10:22:41.987Z,0
2016-12-06T10:23:41.944Z,0
2016-12-06T10:24:42.250Z,0
2016-12-06T10:25:42.260Z,0
2016-12-06T10:26:42.212Z,0
2016-12-06T10:27:42.197Z,0
2016-12-06T10:28:42.193Z,0
2016-12-06T10:29:41.844Z,0
2016-12-06T10:30:41.829Z,0
2016-12-06T10:31:42.133Z,0
2016-12-06T10:32:42.113Z,0
2016-12-06T10:33:42.108Z,0
2016-12-06T10:34:41.458Z,0
2016-12-06T10:35:42.069Z,0
2016-12-06T10:36:42.044Z,0
2016-12-06T10:37:42.042Z,0
2016-12-06T10:38:42.043Z,0
2016-12-06T10:39:41.994Z,0
2016-12-06T10:40:41.675Z,0
2016-12-06T10:41:41.970Z,0
2016-12-06T10:42:41.663Z,0
2016-12-06T10:43:41.629Z,0
2016-12-06T10:44:41.920Z,0
2016-12-06T10:45:41.919Z,0
2016-12-06T10:46:41.889Z,0
2016-12-06T10:47:41.875Z,0
2016-12-06T10:48:41.863Z,0
2016-12-06T10:49:41.528Z,4
2016-12-06T10:50:41.515Z,4
2016-12-06T10:51:41.811Z,4
2016-12-06T10:52:41.795Z,4
2016-12-06T10:53:41.778Z,4
2016-12-06T10:54:41.771Z,4
2016-12-06T10:55:41.745Z,4
2016-12-06T10:56:41.419Z,4
2016-12-06T10:57:41.718Z,0
2016-12-06T10:58:41.710Z,0
2016-12-06T10:59:41.686Z,0
2016-12-06T11:00:41.671Z,0
2016-12-06T11:01:41.656Z,0
2016-12-06T11:02:41.315Z,4
2016-12-06T11:03:41.305Z,0
2016-12-06T11:04:40.971Z,0
2016-12-06T11:05:41.273Z,0
2016-12-06T11:06:41.570Z,4
2016-12-06T11:07:41.564Z,4
2016-12-06T11:08:41.540Z,4
2016-12-06T11:09:41.531Z,4
2016-12-06T11:10:41.523Z,4
2016-12-06T11:11:41.492Z,4
2016-12-06T11:12:41.476Z,4
2016-12-06T11:13:40.840Z,4
2016-12-06T11:14:41.126Z,4
2016-12-06T11:15:41.431Z,4
2016-12-06T11:16:41.412Z,4
2016-12-06T11:17:41.396Z,4
2016-12-06T11:18:41.385Z,0
2016-12-06T11:19:41.048Z,0
2016-12-06T11:20:40.721Z,4
2016-12-06T11:21:41.017Z,4
2016-12-06T11:22:41.322Z,0
2016-12-06T11:23:40.991Z,0
2016-12-06T11:24:41.296Z,0
2016-12-06T11:25:40.329Z,0
2016-12-06T11:26:40.964Z,4
2016-12-06T11:27:41.242Z,0
2016-12-06T11:28:41.247Z,4
2016-12-06T11:29:40.910Z,4
2016-12-06T11:30:41.194Z,4
2016-12-06T11:31:40.859Z,4
2016-12-06T11:32:40.848Z,20
2016-12-06T11:33:40.827Z,20
2016-12-06T11:34:40.819Z,20
2016-12-06T11:35:41.116Z,20
2016-12-06T11:36:40.789Z,20
2016-12-06T11:37:40.772Z,24
2016-12-06T11:38:41.069Z,24
2016-12-06T11:39:40.736Z,28
2016-12-06T11:40:41.030Z,32
2016-12-06T11:41:41.067Z,32
2016-12-06T11:42:40.684Z,32
2016-12-06T11:43:40.666Z,36
2016-12-06T11:44:40.978Z,36
2016-12-06T11:45:40.639Z,36
2016-12-06T11:46:40.619Z,40
2016-12-06T11:47:40.936Z,40
2016-12-06T11:48:40.920Z,40
2016-12-06T11:49:40.889Z,40
2016-12-06T11:50:40.876Z,36
2016-12-06T11:51:40.858Z,36
2016-12-06T11:52:40.526Z,36
2016-12-06T11:53:40.517Z,32
2016-12-06T11:54:40.493Z,36
2016-12-06T11:55:40.791Z,32
2016-12-06T11:56:40.797Z,36
2016-12-06T11:57:40.763Z,40
2016-12-06T11:58:40.428Z,44
2016-12-06T11:59:40.417Z,40
2016-12-06T12:00:40.086Z,40
2016-12-06T12:01:40.700Z,40
2016-12-06T12:02:40.682Z,40
2016-12-06T12:03:40.355Z,36
2016-12-06T12:04:40.343Z,36
2016-12-06T12:05:40.535Z,36
2016-12-06T12:06:40.617Z,36
2016-12-06T12:07:40.292Z,36
2016-12-06T12:08:40.274Z,36
2016-12-06T12:09:39.627Z,32
2016-12-06T12:10:40.232Z,32
2016-12-06T12:11:40.543Z,32
2016-12-06T12:12:40.519Z,28
2016-12-06T12:13:40.506Z,28
2016-12-06T12:14:40.169Z,28
2016-12-06T12:15:40.153Z,28
2016-12-06T12:16:40.467Z,28
2016-12-06T12:17:40.150Z,28
2016-12-06T12:18:40.430Z,32
2016-12-06T12:19:40.409Z,36
2016-12-06T12:20:40.395Z,36
2016-12-06T12:21:40.377Z,32
2016-12-06T12:22:40.365Z,32
2016-12-06T12:23:40.351Z,32
2016-12-06T12:24:40.025Z,32
2016-12-06T12:25:40.318Z,36
2016-12-06T12:26:40.297Z,36
2016-12-06T12:27:40.282Z,40
2016-12-06T12:28:40.264Z,44
2016-12-06T12:29:39.933Z,48
2016-12-06T12:30:40.250Z,44
2016-12-06T12:31:39.901Z,48
2016-12-06T12:32:40.203Z,52
2016-12-06T12:33:40.188Z,52
2016-12-06T12:34:40.173Z,52
2016-12-06T12:35:40.154Z,44
2016-12-06T12:36:40.131Z,40
2016-12-06T12:37:40.131Z,36
2016-12-06T12:38:39.792Z,36
2016-12-06T12:39:39.453Z,32
2016-12-06T12:40:39.752Z,28
2016-12-06T12:41:39.747Z,24
2016-12-06T12:42:40.052Z,20
2016-12-06T12:43:40.022Z,16
2016-12-06T12:44:39.689Z,16
2016-12-06T12:45:39.707Z,16
2016-12-06T12:46:39.981Z,12
2016-12-06T12:47:39.640Z,16
2016-12-06T12:48:39.659Z,12
2016-12-06T12:49:39.927Z,12
2016-12-06T12:50:39.280Z,12
2016-12-06T12:51:40.111Z,12
2016-12-06T12:52:39.877Z,8
2016-12-06T12:53:39.866Z,12
2016-12-06T12:54:39.847Z,8
2016-12-06T12:55:39.836Z,8
2016-12-06T12:56:39.818Z,8
2016-12-06T12:57:39.797Z,8
2016-12-06T12:58:39.467Z,8
2016-12-06T12:59:39.763Z,12
2016-12-06T13:00:39.115Z,12
2016-12-06T13:01:39.420Z,8
2016-12-06T13:02:39.399Z,12
2016-12-06T13:03:39.698Z,12
2016-12-06T13:04:39.684Z,12
2016-12-06T13:05:39.597Z,12
2016-12-06T13:06:39.660Z,12
2016-12-06T13:07:39.293Z,12
2016-12-06T13:08:39.634Z,8
2016-12-06T13:09:38.968Z,8
2016-12-06T13:10:39.594Z,12
2016-12-06T13:11:39.570Z,12
2016-12-06T13:12:39.255Z,12
2016-12-06T13:13:39.243Z,12
2016-12-06T13:14:38.590Z,12
2016-12-06T13:15:38.571Z,12
2016-12-06T13:16:39.530Z,12
2016-12-06T13:17:39.474Z,12
2016-12-06T13:18:39.469Z,12
2016-12-06T13:19:39.452Z,12
2016-12-06T13:20:39.438Z,12
2016-12-06T13:21:39.412Z,8
2016-12-06T13:22:38.766Z,8
2016-12-06T13:23:39.059Z,8
2016-12-06T13:24:39.570Z,8
2016-12-06T13:25:39.357Z,8
2016-12-06T13:26:39.020Z,8
2016-12-06T13:27:38.993Z,8
2016-12-06T13:28:38.987Z,8
2016-12-06T13:29:38.965Z,8
2016-12-06T13:30:39.263Z,8
2016-12-06T13:31:39.272Z,8
2016-12-06T13:32:38.927Z,8
2016-12-06T13:33:38.952Z,8
2016-12-06T13:34:38.912Z,8
2016-12-06T13:35:39.181Z,8
2016-12-06T13:36:38.848Z,8
2016-12-06T13:37:38.856Z,8
2016-12-06T13:38:38.191Z,8
2016-12-06T13:39:39.158Z,8
2016-12-06T13:40:38.785Z,8
2016-12-06T13:41:39.089Z,8
2016-12-06T13:42:39.064Z,8
2016-12-06T13:43:39.061Z,8
2016-12-06T13:44:38.736Z,8
2016-12-06T13:45:38.401Z,8
2016-12-06T13:46:38.410Z,8
2016-12-06T13:47:38.388Z,8
2016-12-06T13:48:38.365Z,8
2016-12-06T13:49:38.343Z,8
2016-12-06T13:50:38.002Z,8
2016-12-06T13:51:38.848Z,12
2016-12-06T13:52:38.928Z,8
2016-12-06T13:53:38.597Z,8
2016-12-06T13:54:38.254Z,8
2016-12-06T13:55:37.919Z,8
2016-12-06T13:56:38.224Z,8
2016-12-06T13:57:38.203Z,8
2016-12-06T13:58:38.189Z,8
2016-12-06T13:59:38.175Z,8
2016-12-06T14:00:38.163Z,8
2016-12-06T14:01:37.826Z,8
2016-12-06T14:02:38.493Z,8
2016-12-06T14:03:38.123Z,8
2016-12-06T14:04:37.784Z,4
2016-12-06T14:05:38.309Z,4
2016-12-06T14:06:38.088Z,4
2016-12-06T14:07:37.758Z,4
2016-12-06T14:08:38.333Z,4
2016-12-06T14:09:37.689Z,4
2016-12-06T14:10:38.014Z,4
2016-12-06T14:11:37.973Z,8
2016-12-06T14:12:37.688Z,8
2016-12-06T14:13:38.259Z,8
2016-12-06T14:14:38.253Z,8
2016-12-06T14:15:38.563Z,8
2016-12-06T14:16:37.896Z,8
2016-12-06T14:17:37.892Z,8
2016-12-06T14:18:37.869Z,8
2016-12-06T14:19:38.472Z,8
2016-12-06T14:20:38.457Z,8
2016-12-06T14:21:38.444Z,8
2016-12-06T14:22:38.427Z,4
2016-12-06T14:23:38.405Z,4
2016-12-06T14:24:38.076Z,4
2016-12-06T14:25:38.371Z,4
2016-12-06T14:26:38.041Z,4
2016-12-06T14:27:38.339Z,4
2016-12-06T14:28:38.013Z,4
2016-12-06T14:29:37.990Z,4
2016-12-06T14:30:37.978Z,4
2016-12-06T14:31:37.963Z,4
2016-12-06T14:32:37.951Z,4
2016-12-06T14:33:38.245Z,4
2016-12-06T14:34:37.926Z,4
2016-12-06T14:35:38.224Z,4
2016-12-06T14:36:37.874Z,4
2016-12-06T14:37:38.176Z,0
2016-12-06T14:38:37.847Z,0
2016-12-06T14:39:38.146Z,4
2016-12-06T14:40:38.125Z,4
2016-12-06T14:41:38.124Z,4
2016-12-06T14:42:38.100Z,4
2016-12-06T14:43:38.083Z,4
2016-12-06T14:44:37.755Z,4